sensor_id;sensor_type;location;lat;lon;timestamp;P1;durP1;ratioP1;P2;durP2;ratioP2
14526;SDS011;7350;51.208;4.238;2023-03-14T00:01:31;9.75;;;5.22;;
14526;SDS011;7350;51.208;4.238;2023-03-14T00:03:59;6.70;;;4.55;;
14526;SDS011;7350;51.208;4.238;2023-03-14T00:06:26;8.00;;;5.07;;
14526;SDS011;7350;51.208;4.238;2023-03-14T00:08:53;8.40;;;5.20;;
14526;SDS011;7350;51.208;4.238;2023-03-14T00:11:21;7.05;;;5.05;;
14526;SDS011;7350;51.208;4.238;2023-03-14T00:13:48;7.13;;;4.53;;
14526;SDS011;7350;51.208;4.238;2023-03-14T00:16:16;7.30;;;4.18;;
14526;SDS011;7350;51.208;4.238;2023-03-14T00:18:43;7.32;;;4.30;;
14526;SDS011;7350;51.208;4.238;2023-03-14T00:21:12;6.78;;;4.10;;
14526;SDS011;7350;51.208;4.238;2023-03-14T00:23:40;6.22;;;3.90;;
14526;SDS011;7350;51.208;4.238;2023-03-14T00:26:08;6.35;;;4.45;;
14526;SDS011;7350;51.208;4.238;2023-03-14T00:28:37;5.75;;;3.50;;
14526;SDS011;7350;51.208;4.238;2023-03-14T00:31:05;6.53;;;4.03;;
14526;SDS011;7350;51.208;4.238;2023-03-14T00:33:33;6.20;;;3.80;;
14526;SDS011;7350;51.208;4.238;2023-03-14T00:36:01;5.55;;;3.55;;
14526;SDS011;7350;51.208;4.238;2023-03-14T00:38:32;5.85;;;3.47;;
14526;SDS011;7350;51.208;4.238;2023-03-14T00:41:01;6.18;;;3.53;;
14526;SDS011;7350;51.208;4.238;2023-03-14T00:43:29;5.25;;;3.45;;
14526;SDS011;7350;51.208;4.238;2023-03-14T00:45:56;5.35;;;3.17;;
14526;SDS011;7350;51.208;4.238;2023-03-14T00:48:24;5.80;;;3.20;;
14526;SDS011;7350;51.208;4.238;2023-03-14T00:50:51;3.72;;;2.65;;
14526;SDS011;7350;51.208;4.238;2023-03-14T00:53:18;6.28;;;2.90;;
14526;SDS011;7350;51.208;4.238;2023-03-14T00:55:46;4.30;;;2.63;;
14526;SDS011;7350;51.208;4.238;2023-03-14T00:58:13;4.82;;;3.22;;
14526;SDS011;7350;51.208;4.238;2023-03-14T01:00:42;4.13;;;2.22;;
14526;SDS011;7350;51.208;4.238;2023-03-14T01:03:10;4.82;;;2.63;;
14526;SDS011;7350;51.208;4.238;2023-03-14T01:05:38;4.00;;;2.33;;
14526;SDS011;7350;51.208;4.238;2023-03-14T01:08:05;4.40;;;2.47;;
14526;SDS011;7350;51.208;4.238;2023-03-14T01:10:33;3.97;;;2.30;;
14526;SDS011;7350;51.208;4.238;2023-03-14T01:13:01;5.03;;;2.17;;
14526;SDS011;7350;51.208;4.238;2023-03-14T01:15:28;5.22;;;2.45;;
14526;SDS011;7350;51.208;4.238;2023-03-14T01:17:55;4.97;;;2.25;;
14526;SDS011;7350;51.208;4.238;2023-03-14T01:20:22;3.70;;;2.33;;
14526;SDS011;7350;51.208;4.238;2023-03-14T01:22:49;6.30;;;2.35;;
14526;SDS011;7350;51.208;4.238;2023-03-14T01:25:16;4.03;;;2.10;;
14526;SDS011;7350;51.208;4.238;2023-03-14T01:27:44;4.60;;;2.10;;
14526;SDS011;7350;51.208;4.238;2023-03-14T01:30:13;4.95;;;2.20;;
14526;SDS011;7350;51.208;4.238;2023-03-14T01:32:40;3.92;;;2.38;;
14526;SDS011;7350;51.208;4.238;2023-03-14T01:35:07;3.78;;;2.20;;
14526;SDS011;7350;51.208;4.238;2023-03-14T01:37:34;5.22;;;2.22;;
14526;SDS011;7350;51.208;4.238;2023-03-14T01:40:01;4.35;;;1.77;;
14526;SDS011;7350;51.208;4.238;2023-03-14T01:42:30;3.92;;;1.88;;
14526;SDS011;7350;51.208;4.238;2023-03-14T01:44:58;3.38;;;1.83;;
14526;SDS011;7350;51.208;4.238;2023-03-14T01:47:27;3.92;;;2.10;;
14526;SDS011;7350;51.208;4.238;2023-03-14T01:49:56;3.70;;;2.03;;
14526;SDS011;7350;51.208;4.238;2023-03-14T01:52:27;4.50;;;1.95;;
14526;SDS011;7350;51.208;4.238;2023-03-14T01:55:01;3.80;;;1.52;;
14526;SDS011;7350;51.208;4.238;2023-03-14T01:57:31;3.63;;;1.67;;
14526;SDS011;7350;51.208;4.238;2023-03-14T02:00:04;3.78;;;1.90;;
14526;SDS011;7350;51.208;4.238;2023-03-14T02:02:38;5.13;;;1.80;;
14526;SDS011;7350;51.208;4.238;2023-03-14T02:05:08;5.00;;;1.80;;
14526;SDS011;7350;51.208;4.238;2023-03-14T02:07:36;3.55;;;1.77;;
14526;SDS011;7350;51.208;4.238;2023-03-14T02:10:08;4.03;;;1.60;;
14526;SDS011;7350;51.208;4.238;2023-03-14T02:12:36;3.33;;;1.65;;
14526;SDS011;7350;51.208;4.238;2023-03-14T02:15:05;6.40;;;2.08;;
14526;SDS011;7350;51.208;4.238;2023-03-14T02:17:33;2.45;;;1.60;;
14526;SDS011;7350;51.208;4.238;2023-03-14T02:20:06;5.20;;;1.90;;
14526;SDS011;7350;51.208;4.238;2023-03-14T02:22:42;3.05;;;1.80;;
14526;SDS011;7350;51.208;4.238;2023-03-14T02:25:12;4.43;;;1.65;;
14526;SDS011;7350;51.208;4.238;2023-03-14T02:27:44;4.20;;;1.70;;
14526;SDS011;7350;51.208;4.238;2023-03-14T02:30:13;5.90;;;1.73;;
14526;SDS011;7350;51.208;4.238;2023-03-14T02:32:43;3.88;;;1.55;;
14526;SDS011;7350;51.208;4.238;2023-03-14T02:35:14;5.13;;;1.88;;
14526;SDS011;7350;51.208;4.238;2023-03-14T02:37:46;5.13;;;1.65;;
14526;SDS011;7350;51.208;4.238;2023-03-14T02:40:17;3.70;;;1.63;;
14526;SDS011;7350;51.208;4.238;2023-03-14T02:42:45;3.83;;;1.42;;
14526;SDS011;7350;51.208;4.238;2023-03-14T02:48:02;4.47;;;1.77;;
14526;SDS011;7350;51.208;4.238;2023-03-14T02:50:32;2.55;;;1.48;;
14526;SDS011;7350;51.208;4.238;2023-03-14T02:53:00;4.10;;;1.70;;
14526;SDS011;7350;51.208;4.238;2023-03-14T02:55:27;2.70;;;1.23;;
14526;SDS011;7350;51.208;4.238;2023-03-14T02:57:57;3.40;;;1.63;;
14526;SDS011;7350;51.208;4.238;2023-03-14T03:00:24;2.85;;;1.48;;
14526;SDS011;7350;51.208;4.238;2023-03-14T03:02:51;2.88;;;1.58;;
14526;SDS011;7350;51.208;4.238;2023-03-14T03:05:18;4.32;;;1.65;;
14526;SDS011;7350;51.208;4.238;2023-03-14T03:07:45;3.40;;;1.30;;
14526;SDS011;7350;51.208;4.238;2023-03-14T03:10:12;4.28;;;1.63;;
14526;SDS011;7350;51.208;4.238;2023-03-14T03:12:39;3.80;;;1.40;;
14526;SDS011;7350;51.208;4.238;2023-03-14T03:15:08;3.85;;;1.58;;
14526;SDS011;7350;51.208;4.238;2023-03-14T03:17:35;3.20;;;1.30;;
14526;SDS011;7350;51.208;4.238;2023-03-14T03:20:03;2.63;;;1.33;;
14526;SDS011;7350;51.208;4.238;2023-03-14T03:22:33;3.10;;;1.17;;
14526;SDS011;7350;51.208;4.238;2023-03-14T03:25:01;3.78;;;1.40;;
14526;SDS011;7350;51.208;4.238;2023-03-14T03:27:29;4.70;;;1.60;;
14526;SDS011;7350;51.208;4.238;2023-03-14T03:29:56;3.35;;;1.08;;
14526;SDS011;7350;51.208;4.238;2023-03-14T03:32:25;2.38;;;1.00;;
14526;SDS011;7350;51.208;4.238;2023-03-14T03:34:52;2.58;;;1.33;;
14526;SDS011;7350;51.208;4.238;2023-03-14T03:37:19;2.97;;;1.20;;
14526;SDS011;7350;51.208;4.238;2023-03-14T03:39:46;4.07;;;1.30;;
14526;SDS011;7350;51.208;4.238;2023-03-14T03:42:13;1.88;;;1.02;;
14526;SDS011;7350;51.208;4.238;2023-03-14T03:44:40;3.83;;;1.27;;
14526;SDS011;7350;51.208;4.238;2023-03-14T03:47:07;3.40;;;1.20;;
14526;SDS011;7350;51.208;4.238;2023-03-14T03:49:35;1.95;;;1.10;;
14526;SDS011;7350;51.208;4.238;2023-03-14T03:52:02;2.95;;;1.05;;
14526;SDS011;7350;51.208;4.238;2023-03-14T03:54:29;2.40;;;0.98;;
14526;SDS011;7350;51.208;4.238;2023-03-14T03:56:56;3.00;;;1.27;;
14526;SDS011;7350;51.208;4.238;2023-03-14T03:59:23;2.78;;;1.00;;
14526;SDS011;7350;51.208;4.238;2023-03-14T04:01:50;2.63;;;1.17;;
14526;SDS011;7350;51.208;4.238;2023-03-14T04:04:17;2.80;;;1.30;;
14526;SDS011;7350;51.208;4.238;2023-03-14T04:06:45;3.00;;;1.17;;
14526;SDS011;7350;51.208;4.238;2023-03-14T04:09:12;2.03;;;1.15;;
14526;SDS011;7350;51.208;4.238;2023-03-14T04:11:39;3.25;;;1.20;;
14526;SDS011;7350;51.208;4.238;2023-03-14T04:14:07;2.70;;;1.27;;
14526;SDS011;7350;51.208;4.238;2023-03-14T04:16:34;1.73;;;0.90;;
14526;SDS011;7350;51.208;4.238;2023-03-14T04:19:01;3.17;;;1.00;;
14526;SDS011;7350;51.208;4.238;2023-03-14T04:21:29;1.88;;;1.35;;
14526;SDS011;7350;51.208;4.238;2023-03-14T04:23:57;2.78;;;1.02;;
14526;SDS011;7350;51.208;4.238;2023-03-14T04:26:24;2.67;;;1.20;;
14526;SDS011;7350;51.208;4.238;2023-03-14T04:28:51;2.53;;;1.23;;
14526;SDS011;7350;51.208;4.238;2023-03-14T04:31:20;3.70;;;1.13;;
14526;SDS011;7350;51.208;4.238;2023-03-14T04:33:47;3.20;;;1.20;;
14526;SDS011;7350;51.208;4.238;2023-03-14T04:36:14;3.70;;;1.20;;
14526;SDS011;7350;51.208;4.238;2023-03-14T04:38:41;4.38;;;1.40;;
14526;SDS011;7350;51.208;4.238;2023-03-14T04:41:09;2.50;;;1.27;;
14526;SDS011;7350;51.208;4.238;2023-03-14T04:43:36;2.28;;;1.25;;
14526;SDS011;7350;51.208;4.238;2023-03-14T04:46:04;2.67;;;1.10;;
14526;SDS011;7350;51.208;4.238;2023-03-14T04:48:31;5.30;;;1.33;;
14526;SDS011;7350;51.208;4.238;2023-03-14T04:50:58;3.65;;;1.10;;
14526;SDS011;7350;51.208;4.238;2023-03-14T04:53:25;3.13;;;1.40;;
14526;SDS011;7350;51.208;4.238;2023-03-14T04:55:52;3.20;;;1.50;;
14526;SDS011;7350;51.208;4.238;2023-03-14T04:58:22;2.65;;;1.40;;
14526;SDS011;7350;51.208;4.238;2023-03-14T05:00:50;4.65;;;1.40;;
14526;SDS011;7350;51.208;4.238;2023-03-14T05:03:17;3.65;;;1.45;;
14526;SDS011;7350;51.208;4.238;2023-03-14T05:05:45;2.55;;;1.70;;
14526;SDS011;7350;51.208;4.238;2023-03-14T05:08:12;3.00;;;1.20;;
14526;SDS011;7350;51.208;4.238;2023-03-14T05:10:39;4.15;;;1.55;;
14526;SDS011;7350;51.208;4.238;2023-03-14T05:13:06;2.45;;;1.20;;
14526;SDS011;7350;51.208;4.238;2023-03-14T05:15:34;2.78;;;1.40;;
14526;SDS011;7350;51.208;4.238;2023-03-14T05:18:01;3.28;;;1.60;;
14526;SDS011;7350;51.208;4.238;2023-03-14T05:20:28;3.35;;;1.75;;
14526;SDS011;7350;51.208;4.238;2023-03-14T05:22:56;2.00;;;1.20;;
14526;SDS011;7350;51.208;4.238;2023-03-14T05:25:23;3.55;;;1.42;;
14526;SDS011;7350;51.208;4.238;2023-03-14T05:27:53;2.58;;;1.35;;
14526;SDS011;7350;51.208;4.238;2023-03-14T05:30:20;2.33;;;1.15;;
14526;SDS011;7350;51.208;4.238;2023-03-14T05:32:49;3.05;;;1.48;;
14526;SDS011;7350;51.208;4.238;2023-03-14T05:35:16;2.83;;;1.52;;
14526;SDS011;7350;51.208;4.238;2023-03-14T05:37:43;2.40;;;1.40;;
14526;SDS011;7350;51.208;4.238;2023-03-14T05:40:10;2.25;;;1.30;;
14526;SDS011;7350;51.208;4.238;2023-03-14T05:42:38;2.45;;;1.30;;
14526;SDS011;7350;51.208;4.238;2023-03-14T05:45:05;3.53;;;1.50;;
14526;SDS011;7350;51.208;4.238;2023-03-14T05:47:33;3.03;;;1.90;;
14526;SDS011;7350;51.208;4.238;2023-03-14T05:50:01;2.92;;;1.55;;
14526;SDS011;7350;51.208;4.238;2023-03-14T05:52:28;1.90;;;1.25;;
14526;SDS011;7350;51.208;4.238;2023-03-14T05:54:55;1.42;;;1.30;;
14526;SDS011;7350;51.208;4.238;2023-03-14T05:57:22;2.03;;;1.30;;
14526;SDS011;7350;51.208;4.238;2023-03-14T05:59:49;65.20;;;58.80;;
14526;SDS011;7350;51.208;4.238;2023-03-14T06:02:16;270.25;;;246.55;;
14526;SDS011;7350;51.208;4.238;2023-03-14T06:04:43;260.65;;;237.48;;
14526;SDS011;7350;51.208;4.238;2023-03-14T06:07:11;220.93;;;201.60;;
14526;SDS011;7350;51.208;4.238;2023-03-14T06:09:38;173.13;;;157.65;;
14526;SDS011;7350;51.208;4.238;2023-03-14T06:12:05;144.90;;;131.68;;
14526;SDS011;7350;51.208;4.238;2023-03-14T06:14:33;138.13;;;126.00;;
14526;SDS011;7350;51.208;4.238;2023-03-14T06:17:00;132.75;;;121.78;;
14526;SDS011;7350;51.208;4.238;2023-03-14T06:19:27;114.00;;;104.28;;
14526;SDS011;7350;51.208;4.238;2023-03-14T06:21:54;107.30;;;98.15;;
14526;SDS011;7350;51.208;4.238;2023-03-14T06:24:22;108.68;;;100.18;;
14526;SDS011;7350;51.208;4.238;2023-03-14T06:26:49;91.38;;;83.85;;
14526;SDS011;7350;51.208;4.238;2023-03-14T06:29:16;89.40;;;81.65;;
14526;SDS011;7350;51.208;4.238;2023-03-14T06:31:43;84.45;;;77.05;;
14526;SDS011;7350;51.208;4.238;2023-03-14T06:34:10;74.45;;;68.10;;
14526;SDS011;7350;51.208;4.238;2023-03-14T06:36:37;76.72;;;70.25;;
14526;SDS011;7350;51.208;4.238;2023-03-14T06:39:04;73.78;;;67.47;;
14526;SDS011;7350;51.208;4.238;2023-03-14T06:41:33;67.65;;;61.88;;
14526;SDS011;7350;51.208;4.238;2023-03-14T06:44:00;64.75;;;59.20;;
14526;SDS011;7350;51.208;4.238;2023-03-14T06:46:27;60.70;;;55.40;;
14526;SDS011;7350;51.208;4.238;2023-03-14T06:48:54;56.38;;;51.58;;
14526;SDS011;7350;51.208;4.238;2023-03-14T06:51:21;52.35;;;47.95;;
14526;SDS011;7350;51.208;4.238;2023-03-14T06:53:48;51.05;;;46.55;;
14526;SDS011;7350;51.208;4.238;2023-03-14T06:56:15;46.67;;;42.58;;
14526;SDS011;7350;51.208;4.238;2023-03-14T06:58:43;46.67;;;42.67;;
14526;SDS011;7350;51.208;4.238;2023-03-14T07:01:15;45.03;;;41.13;;
14526;SDS011;7350;51.208;4.238;2023-03-14T07:03:47;44.38;;;40.60;;
14526;SDS011;7350;51.208;4.238;2023-03-14T07:06:14;40.70;;;37.30;;
14526;SDS011;7350;51.208;4.238;2023-03-14T07:08:41;38.80;;;35.42;;
14526;SDS011;7350;51.208;4.238;2023-03-14T07:11:08;38.20;;;35.05;;
14526;SDS011;7350;51.208;4.238;2023-03-14T07:13:36;34.92;;;31.92;;
14526;SDS011;7350;51.208;4.238;2023-03-14T07:16:04;35.53;;;32.42;;
14526;SDS011;7350;51.208;4.238;2023-03-14T07:18:32;32.85;;;30.02;;
14526;SDS011;7350;51.208;4.238;2023-03-14T07:20:59;32.28;;;29.65;;
14526;SDS011;7350;51.208;4.238;2023-03-14T07:23:26;32.42;;;29.73;;
14526;SDS011;7350;51.208;4.238;2023-03-14T07:25:53;31.13;;;28.42;;
14526;SDS011;7350;51.208;4.238;2023-03-14T07:28:20;29.83;;;27.30;;
14526;SDS011;7350;51.208;4.238;2023-03-14T07:30:48;28.23;;;25.80;;
14526;SDS011;7350;51.208;4.238;2023-03-14T07:33:16;28.65;;;26.25;;
14526;SDS011;7350;51.208;4.238;2023-03-14T07:35:43;29.80;;;27.50;;
14526;SDS011;7350;51.208;4.238;2023-03-14T07:38:10;26.33;;;24.20;;
14526;SDS011;7350;51.208;4.238;2023-03-14T07:40:37;26.70;;;24.42;;
14526;SDS011;7350;51.208;4.238;2023-03-14T07:43:04;25.85;;;23.42;;
14526;SDS011;7350;51.208;4.238;2023-03-14T07:45:31;24.98;;;22.88;;
14526;SDS011;7350;51.208;4.238;2023-03-14T07:47:58;23.85;;;21.77;;
14526;SDS011;7350;51.208;4.238;2023-03-14T07:50:28;24.08;;;21.98;;
14526;SDS011;7350;51.208;4.238;2023-03-14T07:52:55;22.75;;;20.75;;
14526;SDS011;7350;51.208;4.238;2023-03-14T07:55:22;21.85;;;19.88;;
14526;SDS011;7350;51.208;4.238;2023-03-14T07:57:49;21.33;;;19.33;;
14526;SDS011;7350;51.208;4.238;2023-03-14T08:00:16;20.77;;;18.98;;
14526;SDS011;7350;51.208;4.238;2023-03-14T08:02:44;18.70;;;17.08;;
14526;SDS011;7350;51.208;4.238;2023-03-14T08:05:11;19.17;;;17.48;;
14526;SDS011;7350;51.208;4.238;2023-03-14T08:07:39;17.58;;;16.13;;
14526;SDS011;7350;51.208;4.238;2023-03-14T08:10:06;16.80;;;15.30;;
14526;SDS011;7350;51.208;4.238;2023-03-14T08:12:34;17.60;;;16.00;;
14526;SDS011;7350;51.208;4.238;2023-03-14T08:15:01;16.00;;;14.60;;
14526;SDS011;7350;51.208;4.238;2023-03-14T08:17:28;15.68;;;14.30;;
14526;SDS011;7350;51.208;4.238;2023-03-14T08:19:55;15.77;;;14.38;;
14526;SDS011;7350;51.208;4.238;2023-03-14T08:22:22;16.17;;;14.75;;
14526;SDS011;7350;51.208;4.238;2023-03-14T08:24:51;14.40;;;13.00;;
14526;SDS011;7350;51.208;4.238;2023-03-14T08:27:18;13.93;;;12.73;;
14526;SDS011;7350;51.208;4.238;2023-03-14T08:29:44;13.50;;;12.20;;
14526;SDS011;7350;51.208;4.238;2023-03-14T08:32:11;13.13;;;11.93;;
14526;SDS011;7350;51.208;4.238;2023-03-14T08:34:38;12.68;;;11.48;;
14526;SDS011;7350;51.208;4.238;2023-03-14T08:37:05;12.75;;;11.40;;
14526;SDS011;7350;51.208;4.238;2023-03-14T08:39:32;11.13;;;10.13;;
14526;SDS011;7350;51.208;4.238;2023-03-14T08:42:01;10.77;;;9.52;;
14526;SDS011;7350;51.208;4.238;2023-03-14T08:44:28;11.05;;;9.95;;
14526;SDS011;7350;51.208;4.238;2023-03-14T08:46:55;10.98;;;9.85;;
14526;SDS011;7350;51.208;4.238;2023-03-14T08:49:22;10.35;;;8.20;;
14526;SDS011;7350;51.208;4.238;2023-03-14T08:51:49;10.32;;;8.95;;
14526;SDS011;7350;51.208;4.238;2023-03-14T08:54:16;12.07;;;8.05;;
14526;SDS011;7350;51.208;4.238;2023-03-14T08:56:43;9.30;;;7.82;;
14526;SDS011;7350;51.208;4.238;2023-03-14T08:59:12;8.10;;;7.40;;
14526;SDS011;7350;51.208;4.238;2023-03-14T09:01:39;8.10;;;7.40;;
14526;SDS011;7350;51.208;4.238;2023-03-14T09:04:05;7.75;;;7.05;;
14526;SDS011;7350;51.208;4.238;2023-03-14T09:06:33;8.20;;;7.32;;
14526;SDS011;7350;51.208;4.238;2023-03-14T09:09:00;7.82;;;6.80;;
14526;SDS011;7350;51.208;4.238;2023-03-14T09:11:27;7.10;;;6.43;;
14526;SDS011;7350;51.208;4.238;2023-03-14T09:13:54;6.97;;;6.28;;
14526;SDS011;7350;51.208;4.238;2023-03-14T09:16:23;7.15;;;6.45;;
14526;SDS011;7350;51.208;4.238;2023-03-14T09:18:50;6.82;;;6.10;;
14526;SDS011;7350;51.208;4.238;2023-03-14T09:21:19;7.03;;;6.32;;
14526;SDS011;7350;51.208;4.238;2023-03-14T09:23:46;6.65;;;5.93;;
14526;SDS011;7350;51.208;4.238;2023-03-14T09:26:14;6.43;;;5.82;;
14526;SDS011;7350;51.208;4.238;2023-03-14T09:28:41;6.82;;;5.60;;
14526;SDS011;7350;51.208;4.238;2023-03-14T09:31:08;6.05;;;5.45;;
14526;SDS011;7350;51.208;4.238;2023-03-14T09:33:37;5.75;;;5.25;;
14526;SDS011;7350;51.208;4.238;2023-03-14T09:36:05;6.18;;;5.50;;
14526;SDS011;7350;51.208;4.238;2023-03-14T09:38:33;5.15;;;4.60;;
14526;SDS011;7350;51.208;4.238;2023-03-14T09:41:00;5.63;;;5.13;;
14526;SDS011;7350;51.208;4.238;2023-03-14T09:43:29;5.93;;;5.20;;
14526;SDS011;7350;51.208;4.238;2023-03-14T09:46:00;5.22;;;4.70;;
14526;SDS011;7350;51.208;4.238;2023-03-14T09:48:29;4.95;;;4.45;;
14526;SDS011;7350;51.208;4.238;2023-03-14T09:51:01;5.30;;;4.55;;
14526;SDS011;7350;51.208;4.238;2023-03-14T09:53:34;5.13;;;4.63;;
14526;SDS011;7350;51.208;4.238;2023-03-14T09:56:07;5.07;;;4.50;;
14526;SDS011;7350;51.208;4.238;2023-03-14T09:58:38;5.00;;;4.40;;
14526;SDS011;7350;51.208;4.238;2023-03-14T10:01:09;4.90;;;4.40;;
14526;SDS011;7350;51.208;4.238;2023-03-14T10:03:40;4.97;;;4.10;;
14526;SDS011;7350;51.208;4.238;2023-03-14T10:06:13;5.78;;;4.45;;
14526;SDS011;7350;51.208;4.238;2023-03-14T10:08:40;4.50;;;3.90;;
14526;SDS011;7350;51.208;4.238;2023-03-14T10:11:11;4.28;;;3.88;;
14526;SDS011;7350;51.208;4.238;2023-03-14T10:13:48;4.32;;;3.60;;
14526;SDS011;7350;51.208;4.238;2023-03-14T10:16:31;4.78;;;3.78;;
14526;SDS011;7350;51.208;4.238;2023-03-14T10:19:03;5.15;;;3.55;;
14526;SDS011;7350;51.208;4.238;2023-03-14T10:21:36;4.45;;;3.78;;
14526;SDS011;7350;51.208;4.238;2023-03-14T10:24:18;3.78;;;3.35;;
14526;SDS011;7350;51.208;4.238;2023-03-14T10:26:49;3.90;;;3.47;;
14526;SDS011;7350;51.208;4.238;2023-03-14T10:29:18;3.70;;;3.40;;
14526;SDS011;7350;51.208;4.238;2023-03-14T10:31:48;3.97;;;3.28;;
14526;SDS011;7350;51.208;4.238;2023-03-14T10:34:17;4.10;;;3.40;;
14526;SDS011;7350;51.208;4.238;2023-03-14T10:36:53;3.53;;;3.20;;
14526;SDS011;7350;51.208;4.238;2023-03-14T10:39:25;3.55;;;3.25;;
14526;SDS011;7350;51.208;4.238;2023-03-14T10:41:56;3.58;;;3.20;;
14526;SDS011;7350;51.208;4.238;2023-03-14T10:44:30;3.05;;;2.70;;
14526;SDS011;7350;51.208;4.238;2023-03-14T10:46:59;3.10;;;2.80;;
14526;SDS011;7350;51.208;4.238;2023-03-14T10:49:28;4.40;;;3.08;;
14526;SDS011;7350;51.208;4.238;2023-03-14T10:52:12;4.38;;;3.35;;
14526;SDS011;7350;51.208;4.238;2023-03-14T10:54:41;4.30;;;2.97;;
14526;SDS011;7350;51.208;4.238;2023-03-14T10:57:12;4.82;;;3.05;;
14526;SDS011;7350;51.208;4.238;2023-03-14T10:59:40;3.38;;;2.53;;
14526;SDS011;7350;51.208;4.238;2023-03-14T11:02:13;3.85;;;2.75;;
14526;SDS011;7350;51.208;4.238;2023-03-14T11:04:55;3.78;;;2.88;;
14526;SDS011;7350;51.208;4.238;2023-03-14T11:07:32;3.75;;;2.67;;
14526;SDS011;7350;51.208;4.238;2023-03-14T11:10:08;4.93;;;2.60;;
14526;SDS011;7350;51.208;4.238;2023-03-14T11:12:42;3.15;;;2.58;;
14526;SDS011;7350;51.208;4.238;2023-03-14T11:15:22;3.22;;;2.50;;
14526;SDS011;7350;51.208;4.238;2023-03-14T11:17:58;4.43;;;2.85;;
14526;SDS011;7350;51.208;4.238;2023-03-14T11:20:37;9.35;;;3.55;;
14526;SDS011;7350;51.208;4.238;2023-03-14T11:23:14;5.78;;;3.40;;
14526;SDS011;7350;51.208;4.238;2023-03-14T11:25:47;8.25;;;4.50;;
14526;SDS011;7350;51.208;4.238;2023-03-14T11:28:23;15.65;;;7.32;;
14526;SDS011;7350;51.208;4.238;2023-03-14T11:30:57;14.05;;;5.63;;
14526;SDS011;7350;51.208;4.238;2023-03-14T11:33:33;10.70;;;5.43;;
14526;SDS011;7350;51.208;4.238;2023-03-14T11:36:04;9.43;;;5.35;;
14526;SDS011;7350;51.208;4.238;2023-03-14T11:38:37;12.23;;;6.45;;
14526;SDS011;7350;51.208;4.238;2023-03-14T11:41:09;13.80;;;6.00;;
14526;SDS011;7350;51.208;4.238;2023-03-14T11:43:40;11.10;;;5.75;;
14526;SDS011;7350;51.208;4.238;2023-03-14T11:46:14;12.43;;;5.85;;
14526;SDS011;7350;51.208;4.238;2023-03-14T11:48:45;11.35;;;5.75;;
14526;SDS011;7350;51.208;4.238;2023-03-14T11:51:20;10.20;;;4.88;;
14526;SDS011;7350;51.208;4.238;2023-03-14T11:53:53;9.95;;;4.88;;
14526;SDS011;7350;51.208;4.238;2023-03-14T11:56:28;11.50;;;4.80;;
14526;SDS011;7350;51.208;4.238;2023-03-14T11:59:00;9.18;;;4.55;;
14526;SDS011;7350;51.208;4.238;2023-03-14T12:01:36;8.70;;;4.35;;
14526;SDS011;7350;51.208;4.238;2023-03-14T12:04:16;7.35;;;3.75;;
14526;SDS011;7350;51.208;4.238;2023-03-14T12:06:55;9.63;;;4.75;;
14526;SDS011;7350;51.208;4.238;2023-03-14T12:09:28;8.55;;;3.90;;
14526;SDS011;7350;51.208;4.238;2023-03-14T12:11:59;8.20;;;4.07;;
14526;SDS011;7350;51.208;4.238;2023-03-14T12:14:29;7.95;;;3.97;;
14526;SDS011;7350;51.208;4.238;2023-03-14T12:16:59;7.75;;;3.80;;
14526;SDS011;7350;51.208;4.238;2023-03-14T12:19:32;6.80;;;3.58;;
14526;SDS011;7350;51.208;4.238;2023-03-14T12:25:03;7.00;;;3.50;;
14526;SDS011;7350;51.208;4.238;2023-03-14T12:27:41;6.80;;;3.65;;
14526;SDS011;7350;51.208;4.238;2023-03-14T12:30:23;9.13;;;3.55;;
14526;SDS011;7350;51.208;4.238;2023-03-14T12:33:19;6.53;;;3.40;;
14526;SDS011;7350;51.208;4.238;2023-03-14T12:35:57;6.57;;;2.67;;
14526;SDS011;7350;51.208;4.238;2023-03-14T12:41:37;6.30;;;3.05;;
14526;SDS011;7350;51.208;4.238;2023-03-14T12:50:24;5.88;;;2.83;;
14526;SDS011;7350;51.208;4.238;2023-03-14T12:53:05;5.22;;;2.65;;
14526;SDS011;7350;51.208;4.238;2023-03-14T12:55:49;5.40;;;2.70;;
14526;SDS011;7350;51.208;4.238;2023-03-14T12:58:26;7.63;;;2.90;;
14526;SDS011;7350;51.208;4.238;2023-03-14T13:00:59;6.07;;;3.00;;
14526;SDS011;7350;51.208;4.238;2023-03-14T13:03:36;6.10;;;2.55;;
14526;SDS011;7350;51.208;4.238;2023-03-14T13:06:08;5.60;;;2.97;;
14526;SDS011;7350;51.208;4.238;2023-03-14T13:08:37;6.13;;;3.03;;
14526;SDS011;7350;51.208;4.238;2023-03-14T13:11:08;4.72;;;2.55;;
14526;SDS011;7350;51.208;4.238;2023-03-14T13:13:42;8.07;;;3.35;;
14526;SDS011;7350;51.208;4.238;2023-03-14T13:16:14;5.15;;;2.40;;
14526;SDS011;7350;51.208;4.238;2023-03-14T13:18:44;6.32;;;2.95;;
14526;SDS011;7350;51.208;4.238;2023-03-14T13:21:13;5.05;;;2.50;;
14526;SDS011;7350;51.208;4.238;2023-03-14T13:23:54;5.43;;;2.60;;
14526;SDS011;7350;51.208;4.238;2023-03-14T13:26:23;6.07;;;2.60;;
14526;SDS011;7350;51.208;4.238;2023-03-14T13:28:54;6.47;;;2.70;;
14526;SDS011;7350;51.208;4.238;2023-03-14T13:31:22;4.47;;;2.60;;
14526;SDS011;7350;51.208;4.238;2023-03-14T13:34:00;5.10;;;2.40;;
14526;SDS011;7350;51.208;4.238;2023-03-14T13:36:28;5.25;;;2.33;;
14526;SDS011;7350;51.208;4.238;2023-03-14T13:38:56;4.82;;;2.42;;
14526;SDS011;7350;51.208;4.238;2023-03-14T13:41:24;3.60;;;2.10;;
14526;SDS011;7350;51.208;4.238;2023-03-14T13:43:52;4.45;;;2.60;;
14526;SDS011;7350;51.208;4.238;2023-03-14T13:46:29;4.72;;;2.42;;
14526;SDS011;7350;51.208;4.238;2023-03-14T13:48:57;6.60;;;2.20;;
14526;SDS011;7350;51.208;4.238;2023-03-14T13:51:27;4.82;;;2.42;;
14526;SDS011;7350;51.208;4.238;2023-03-14T13:53:57;5.78;;;2.50;;
14526;SDS011;7350;51.208;4.238;2023-03-14T13:56:25;5.75;;;2.47;;
14526;SDS011;7350;51.208;4.238;2023-03-14T13:58:53;5.43;;;2.45;;
14526;SDS011;7350;51.208;4.238;2023-03-14T14:01:23;6.43;;;2.30;;
14526;SDS011;7350;51.208;4.238;2023-03-14T14:03:54;6.47;;;2.53;;
14526;SDS011;7350;51.208;4.238;2023-03-14T14:06:25;4.40;;;2.05;;
14526;SDS011;7350;51.208;4.238;2023-03-14T14:08:56;5.88;;;2.10;;
14526;SDS011;7350;51.208;4.238;2023-03-14T14:11:29;7.25;;;2.65;;
14526;SDS011;7350;51.208;4.238;2023-03-14T14:14:06;4.47;;;1.85;;
14526;SDS011;7350;51.208;4.238;2023-03-14T14:16:39;4.85;;;2.05;;
14526;SDS011;7350;51.208;4.238;2023-03-14T14:19:07;6.15;;;2.05;;
14526;SDS011;7350;51.208;4.238;2023-03-14T14:21:34;5.10;;;2.40;;
14526;SDS011;7350;51.208;4.238;2023-03-14T14:24:02;6.45;;;2.53;;
14526;SDS011;7350;51.208;4.238;2023-03-14T14:26:30;4.47;;;1.85;;
14526;SDS011;7350;51.208;4.238;2023-03-14T14:28:58;4.80;;;2.13;;
14526;SDS011;7350;51.208;4.238;2023-03-14T14:31:26;3.95;;;2.08;;
14526;SDS011;7350;51.208;4.238;2023-03-14T14:33:55;4.57;;;1.58;;
14526;SDS011;7350;51.208;4.238;2023-03-14T14:36:24;3.78;;;1.80;;
14526;SDS011;7350;51.208;4.238;2023-03-14T14:38:56;4.75;;;1.83;;
14526;SDS011;7350;51.208;4.238;2023-03-14T14:41:29;4.95;;;1.90;;
14526;SDS011;7350;51.208;4.238;2023-03-14T14:43:57;4.03;;;1.75;;
14526;SDS011;7350;51.208;4.238;2023-03-14T14:46:26;3.83;;;2.10;;
14526;SDS011;7350;51.208;4.238;2023-03-14T14:48:57;3.88;;;1.67;;
14526;SDS011;7350;51.208;4.238;2023-03-14T14:51:31;3.75;;;1.67;;
14526;SDS011;7350;51.208;4.238;2023-03-14T14:54:02;4.88;;;2.08;;
14526;SDS011;7350;51.208;4.238;2023-03-14T14:56:34;5.45;;;1.70;;
14526;SDS011;7350;51.208;4.238;2023-03-14T14:59:03;3.55;;;1.70;;
14526;SDS011;7350;51.208;4.238;2023-03-14T15:01:33;6.03;;;1.70;;
14526;SDS011;7350;51.208;4.238;2023-03-14T15:04:03;4.30;;;1.58;;
14526;SDS011;7350;51.208;4.238;2023-03-14T15:06:37;3.28;;;1.50;;
14526;SDS011;7350;51.208;4.238;2023-03-14T15:09:05;3.67;;;1.77;;
14526;SDS011;7350;51.208;4.238;2023-03-14T15:11:32;3.63;;;1.70;;
14526;SDS011;7350;51.208;4.238;2023-03-14T15:13:59;3.72;;;1.60;;
14526;SDS011;7350;51.208;4.238;2023-03-14T15:16:27;7.10;;;2.03;;
14526;SDS011;7350;51.208;4.238;2023-03-14T15:18:56;4.78;;;1.85;;
14526;SDS011;7350;51.208;4.238;2023-03-14T15:21:25;4.00;;;1.65;;
14526;SDS011;7350;51.208;4.238;2023-03-14T15:23:54;6.05;;;1.88;;